Time;durP1;ratioP1;P1;durP2;ratioP2;P2;SDS_P1;SDS_P2;PMS_P1;PMS_P2;Temp;Humidity;BMP_temperature;BMP_pressure;BME280_temperature;BME280_humidity;BME280_pressure;Samples;Min_cycle;Max_cycle;Signal;HPM_P1;HPM_P2
2023/12/10 00:00:09;;;;;;;23.05;4.07;;;8.90;99.90;;;;;;5103926;27;20118;-78
2023/12/10 00:02:35;;;;;;;19.23;3.83;;;8.90;99.90;;;;;;5118935;27;20088;-77
2023/12/10 00:05:01;;;;;;;24.13;4.28;;;8.90;99.90;;;;;;5113532;27;20392;-77
2023/12/10 00:07:26;;;;;;;18.15;3.60;;;8.90;99.90;;;;;;5116266;27;20039;-77
2023/12/10 00:09:52;;;;;;;26.02;4.22;;;8.90;99.90;;;;;;5115027;27;20080;-77
2023/12/10 00:12:18;;;;;;;21.20;3.72;;;8.90;99.90;;;;;;5127849;27;20031;-76
2023/12/10 00:14:46;;;;;;;21.48;3.50;;;8.90;99.90;;;;;;5114390;27;20092;-77
2023/12/10 00:17:11;;;;;;;31.42;5.25;;;8.80;99.90;;;;;;5113990;27;20177;-77
2023/12/10 00:19:37;;;;;;;24.50;4.75;;;8.90;99.90;;;;;;5100747;28;20127;-77
2023/12/10 00:22:03;;;;;;;26.48;3.90;;;8.90;99.90;;;;;;5111125;28;20073;-77
2023/12/10 00:24:29;;;;;;;22.88;4.57;;;8.90;99.90;;;;;;5076607;27;20066;-77
2023/12/10 00:26:54;;;;;;;25.83;4.35;;;8.90;99.90;;;;;;5106958;27;20040;-77
2023/12/10 00:29:20;;;;;;;28.83;4.32;;;8.90;99.90;;;;;;5072396;28;20126;-77
2023/12/10 00:31:46;;;;;;;22.42;3.83;;;8.90;99.90;;;;;;5091335;28;20044;-77
2023/12/10 00:34:11;;;;;;;31.92;5.35;;;8.80;99.90;;;;;;5096368;28;20052;-77
2023/12/10 00:36:37;;;;;;;25.42;4.25;;;8.90;99.90;;;;;;5080551;28;20387;-77
2023/12/10 00:39:05;;;;;;;29.00;5.40;;;8.90;99.90;;;;;;5087079;27;20035;-77
2023/12/10 00:41:31;;;;;;;27.95;5.63;;;8.90;99.90;;;;;;5121562;27;20621;-77
2023/12/10 00:43:57;;;;;;;25.70;4.53;;;8.90;99.90;;;;;;5115332;27;20031;-77
2023/12/10 00:46:23;;;;;;;22.15;4.50;;;8.80;99.90;;;;;;5118859;27;20042;-77
2023/12/10 00:48:48;;;;;;;20.75;3.63;;;8.90;99.90;;;;;;5129858;27;20455;-76
2023/12/10 00:51:19;;;;;;;29.67;5.20;;;8.90;99.90;;;;;;5125741;27;20042;-76
2023/12/10 00:53:45;;;;;;;31.23;4.70;;;8.90;99.90;;;;;;5142298;27;20046;-76
2023/12/10 00:56:11;;;;;;;23.50;4.07;;;8.90;99.90;;;;;;5093633;27;20051;-77
2023/12/10 00:58:36;;;;;;;20.25;3.83;;;8.90;99.90;;;;;;5095419;27;20035;-77
2023/12/10 01:01:02;;;;;;;25.30;4.47;;;8.90;99.90;;;;;;5131074;27;20078;-77
2023/12/10 01:03:28;;;;;;;19.02;3.42;;;8.90;99.90;;;;;;5118333;27;20448;-77
2023/12/10 01:05:53;;;;;;;16.98;3.15;;;8.80;99.90;;;;;;5114196;27;20045;-78
2023/12/10 01:08:19;;;;;;;22.75;4.35;;;8.80;99.90;;;;;;5130540;27;20512;-78
2023/12/10 01:10:45;;;;;;;14.00;3.15;;;8.70;99.90;;;;;;5112786;27;20085;-78
2023/12/10 01:13:11;;;;;;;27.08;4.18;;;8.70;99.90;;;;;;5105206;28;20047;-79
2023/12/10 01:15:36;;;;;;;17.00;3.30;;;8.60;99.90;;;;;;5108471;27;20446;-78
2023/12/10 01:18:02;;;;;;;19.98;3.35;;;8.50;99.90;;;;;;5114216;27;20156;-79
2023/12/10 01:20:32;;;;;;;19.13;3.53;;;8.40;99.90;;;;;;5084894;28;20474;-79
2023/12/10 01:22:58;;;;;;;17.98;3.20;;;8.30;99.90;;;;;;5081373;28;20039;-78
2023/12/10 01:25:25;;;;;;;26.58;3.50;;;8.30;99.90;;;;;;5101508;27;20191;-79
2023/12/10 01:27:54;;;;;;;17.90;3.78;;;8.30;99.90;;;;;;5097214;28;20052;-79
2023/12/10 01:30:23;;;;;;;20.42;4.50;;;8.20;99.90;;;;;;5136645;27;20073;-79
2023/12/10 01:33:07;;;;;;;22.90;4.38;;;8.20;99.90;;;;;;5093118;28;20130;-79
2023/12/10 01:35:33;;;;;;;24.27;3.72;;;8.20;99.90;;;;;;5115947;28;20588;-79
2023/12/10 01:37:59;;;;;;;24.55;4.43;;;8.20;99.90;;;;;;5101893;28;20134;-80
2023/12/10 01:40:25;;;;;;;25.40;4.18;;;8.20;99.90;;;;;;5087626;28;20031;-80
2023/12/10 01:42:51;;;;;;;22.10;3.85;;;8.10;99.90;;;;;;5077182;28;20044;-80
2023/12/10 01:45:20;;;;;;;24.38;4.22;;;8.10;99.90;;;;;;5114277;28;20054;-80
2023/12/10 01:47:49;;;;;;;29.30;3.92;;;8.10;99.90;;;;;;5110278;28;20048;-80
2023/12/10 01:50:15;;;;;;;24.38;3.60;;;8.10;99.90;;;;;;5109695;28;20035;-80
2023/12/10 01:52:44;;;;;;;28.13;4.50;;;8.10;99.90;;;;;;5142716;27;20054;-80
2023/12/10 01:55:11;;;;;;;21.30;3.78;;;8.10;99.90;;;;;;5084071;28;20098;-80
2023/12/10 01:57:38;;;;;;;27.15;3.80;;;8.10;99.90;;;;;;5113225;28;20043;-80
2023/12/10 02:00:08;;;;;;;27.60;4.22;;;8.00;99.90;;;;;;5149641;27;20031;-80
2023/12/10 02:02:36;;;;;;;31.50;4.68;;;8.00;99.90;;;;;;5091822;28;20552;-80
2023/12/10 02:05:06;;;;;;;20.90;3.83;;;8.10;99.90;;;;;;5093856;28;20052;-80
2023/12/10 02:07:32;;;;;;;24.67;3.88;;;8.00;99.90;;;;;;5111148;27;20032;-80
2023/12/10 02:09:58;;;;;;;24.38;4.07;;;8.00;99.90;;;;;;5114771;27;20051;-79
2023/12/10 02:12:23;;;;;;;26.13;4.32;;;8.10;99.90;;;;;;5075134;28;20036;-79
2023/12/10 02:14:50;;;;;;;19.92;3.38;;;8.00;99.90;;;;;;5115344;27;20375;-80
2023/12/10 02:17:15;;;;;;;22.40;4.07;;;8.00;99.90;;;;;;5127544;27;20039;-80
2023/12/10 02:19:41;;;;;;;23.48;3.65;;;8.00;99.90;;;;;;5111845;28;20051;-79
2023/12/10 02:22:13;;;;;;;20.52;3.95;;;8.00;99.90;;;;;;5104729;27;20035;-79
2023/12/10 02:24:48;;;;;;;21.45;4.05;;;8.00;99.90;;;;;;5082699;28;20063;-79
2023/12/10 02:27:14;;;;;;;17.42;3.60;;;8.00;99.90;;;;;;5110314;27;20067;-78
2023/12/10 02:29:39;;;;;;;25.85;3.55;;;8.10;99.90;;;;;;5077127;28;20070;-79
2023/12/10 02:32:05;;;;;;;21.15;4.07;;;8.10;99.90;;;;;;5100957;28;20086;-79
2023/12/10 02:34:31;;;;;;;28.35;4.03;;;8.00;99.90;;;;;;5111211;27;20058;-79
2023/12/10 02:36:57;;;;;;;21.88;3.85;;;8.10;99.90;;;;;;5094233;28;20032;-78
2023/12/10 02:39:23;;;;;;;21.30;4.32;;;8.10;99.90;;;;;;5109729;27;20101;-78
2023/12/10 02:41:48;;;;;;;24.15;4.25;;;8.10;99.90;;;;;;5107739;27;20119;-79
2023/12/10 02:44:14;;;;;;;22.23;3.90;;;8.10;99.90;;;;;;5116768;27;20038;-79
2023/12/10 02:46:44;;;;;;;24.67;5.30;;;8.10;99.90;;;;;;5092874;28;20052;-78
2023/12/10 02:49:10;;;;;;;23.98;3.60;;;8.10;99.90;;;;;;5081327;28;20479;-79
2023/12/10 02:51:35;;;;;;;21.40;4.30;;;8.10;99.90;;;;;;5130984;27;20053;-78
2023/12/10 02:54:01;;;;;;;20.77;3.70;;;8.10;99.90;;;;;;5082806;28;20051;-79
2023/12/10 02:56:27;;;;;;;21.60;3.15;;;8.00;99.90;;;;;;5053570;28;20043;-79
2023/12/10 02:58:52;;;;;;;18.73;3.22;;;8.00;99.90;;;;;;5135617;27;20036;-79
2023/12/10 03:01:18;;;;;;;19.75;3.28;;;8.00;99.90;;;;;;5093575;28;20038;-78
2023/12/10 03:03:44;;;;;;;20.58;3.50;;;8.00;99.90;;;;;;5088716;28;20032;-78
2023/12/10 03:06:10;;;;;;;16.73;3.33;;;8.00;99.90;;;;;;5093643;27;20138;-79
2023/12/10 03:08:36;;;;;;;21.50;3.80;;;8.10;99.90;;;;;;5104338;27;20046;-79
2023/12/10 03:11:01;;;;;;;19.20;4.22;;;8.00;99.90;;;;;;5116741;27;20039;-79
2023/12/10 03:13:27;;;;;;;22.70;3.70;;;8.00;99.90;;;;;;5108818;28;20573;-79
2023/12/10 03:15:53;;;;;;;20.50;3.33;;;8.00;99.90;;;;;;5090938;28;20138;-79
2023/12/10 03:18:19;;;;;;;18.92;3.88;;;7.90;99.90;;;;;;5115919;27;20039;-78
2023/12/10 03:20:45;;;;;;;18.92;3.15;;;7.90;99.90;;;;;;5115985;27;20035;-79
2023/12/10 03:23:10;;;;;;;18.00;3.20;;;7.90;99.90;;;;;;5126809;27;20035;-78
2023/12/10 03:25:36;;;;;;;17.73;3.13;;;7.90;99.90;;;;;;5078830;28;20061;-79
2023/12/10 03:28:02;;;;;;;17.70;3.10;;;7.90;99.90;;;;;;5106843;27;20039;-78
2023/12/10 03:30:28;;;;;;;17.95;3.72;;;7.90;99.90;;;;;;5112624;28;20043;-79
2023/12/10 03:32:53;;;;;;;15.57;3.22;;;7.80;99.90;;;;;;5122399;27;20380;-79
2023/12/10 03:35:19;;;;;;;18.45;3.22;;;7.90;99.90;;;;;;5112233;28;20048;-78
2023/12/10 03:37:45;;;;;;;19.38;3.20;;;7.90;99.90;;;;;;5111081;28;20040;-79
2023/12/10 03:40:11;;;;;;;15.65;2.63;;;7.90;99.90;;;;;;5095309;28;20035;-78
2023/12/10 03:42:36;;;;;;;16.85;2.80;;;7.80;99.90;;;;;;5107185;27;20388;-79
2023/12/10 03:45:02;;;;;;;11.40;3.20;;;7.90;99.90;;;;;;5113965;27;20147;-79
2023/12/10 03:47:28;;;;;;;16.63;3.45;;;7.80;99.90;;;;;;5129927;27;20043;-78
2023/12/10 03:49:54;;;;;;;15.50;2.53;;;7.80;99.90;;;;;;5075203;28;20064;-78
2023/12/10 03:52:20;;;;;;;14.90;2.00;;;7.90;99.90;;;;;;5090301;28;20043;-78
2023/12/10 03:54:46;;;;;;;11.30;2.15;;;7.80;99.90;;;;;;5073804;28;20543;-78
2023/12/10 03:57:11;;;;;;;8.32;1.80;;;7.90;99.90;;;;;;5111961;28;20043;-80
2023/12/10 03:59:37;;;;;;;13.40;2.08;;;7.80;99.90;;;;;;5094108;28;20027;-79
2023/12/10 04:02:03;;;;;;;10.57;1.83;;;7.90;99.90;;;;;;5083561;27;20043;-78
2023/12/10 04:04:29;;;;;;;7.20;1.30;;;7.90;99.90;;;;;;5118885;27;20082;-78
2023/12/10 04:06:54;;;;;;;5.82;1.75;;;7.80;99.90;;;;;;5110024;28;20513;-78
2023/12/10 04:09:20;;;;;;;7.38;1.77;;;7.80;99.90;;;;;;5116338;27;20047;-78
2023/12/10 04:11:46;;;;;;;6.93;1.63;;;8.00;99.90;;;;;;5130990;27;20435;-77
2023/12/10 04:14:12;;;;;;;8.52;1.83;;;7.90;99.90;;;;;;5127439;27;20048;-78
2023/12/10 04:16:39;;;;;;;7.22;1.60;;;7.90;99.90;;;;;;5094019;28;20071;-77
2023/12/10 04:19:05;;;;;;;10.68;1.75;;;7.90;99.90;;;;;;5095235;27;20042;-77
2023/12/10 04:21:31;;;;;;;5.18;1.27;;;8.00;99.90;;;;;;5110005;28;20706;-77
2023/12/10 04:23:56;;;;;;;6.38;1.05;;;8.10;99.90;;;;;;5099646;28;20040;-77
2023/12/10 04:26:22;;;;;;;7.38;1.52;;;8.10;99.90;;;;;;5091073;28;20407;-77
2023/12/10 04:28:48;;;;;;;4.63;1.13;;;7.90;99.90;;;;;;5121352;27;20047;-77
2023/12/10 04:31:15;;;;;;;5.32;1.20;;;7.90;99.90;;;;;;5131242;27;20047;-77
2023/12/10 04:33:44;;;;;;;6.15;1.30;;;8.10;99.90;;;;;;5129814;27;20054;-77
2023/12/10 04:36:10;;;;;;;4.45;1.25;;;8.00;99.90;;;;;;5131659;27;20036;-76
2023/12/10 04:38:36;;;;;;;8.07;1.73;;;8.00;99.90;;;;;;5120369;27;20072;-77
2023/12/10 04:41:01;;;;;;;8.93;2.05;;;8.30;99.90;;;;;;5111370;28;20122;-76
2023/12/10 04:43:27;;;;;;;6.72;1.50;;;8.40;99.90;;;;;;5101770;27;20554;-77
2023/12/10 04:45:53;;;;;;;7.25;1.58;;;8.50;99.90;;;;;;5114311;27;20047;-77
2023/12/10 04:48:19;;;;;;;8.40;1.80;;;8.20;99.90;;;;;;5101871;27;20043;-77
2023/12/10 04:50:45;;;;;;;10.68;2.15;;;8.50;99.90;;;;;;5102263;27;20122;-77
2023/12/10 04:53:10;;;;;;;7.03;1.52;;;8.50;99.90;;;;;;5139516;27;20048;-77
2023/12/10 04:55:37;;;;;;;10.70;2.38;;;8.30;99.90;;;;;;5093726;28;20044;-76
2023/12/10 04:58:02;;;;;;;9.55;2.08;;;8.30;99.90;;;;;;5110124;28;20199;-76
2023/12/10 05:00:28;;;;;;;9.00;1.90;;;8.50;99.90;;;;;;5109892;27;20571;-76
2023/12/10 05:02:54;;;;;;;12.25;2.20;;;8.60;99.90;;;;;;5107571;28;20044;-76
2023/12/10 05:05:19;;;;;;;8.93;1.88;;;8.40;99.90;;;;;;5093118;27;20050;-76
2023/12/10 05:07:45;;;;;;;8.70;1.90;;;8.40;99.90;;;;;;5108143;28;20051;-76
2023/12/10 05:10:11;;;;;;;10.93;2.20;;;8.60;99.90;;;;;;5132649;27;20105;-75
2023/12/10 05:12:37;;;;;;;13.00;2.70;;;8.40;99.90;;;;;;5105579;28;20043;-75
2023/12/10 05:15:03;;;;;;;13.27;2.65;;;8.60;99.90;;;;;;5122631;27;20031;-75
2023/12/10 05:17:29;;;;;;;;;;;8.50;99.90;;;;;;5122936;27;20031;-75
2023/12/10 05:19:57;;;;;;;9.60;2.13;;;8.60;99.90;;;;;;5112188;27;20010;-75
2023/12/10 05:22:23;;;;;;;10.00;1.90;;;8.30;99.90;;;;;;5110344;27;20126;-76
2023/12/10 05:24:49;;;;;;;8.20;1.60;;;8.60;99.90;;;;;;5087927;27;20039;-76
2023/12/10 05:27:15;;;;;;;9.98;2.00;;;8.60;99.90;;;;;;5092679;28;20059;-76
2023/12/10 05:29:41;;;;;;;9.95;2.70;;;8.40;99.90;;;;;;5113050;27;20086;-76
2023/12/10 05:32:06;;;;;;;8.50;1.63;;;8.50;99.90;;;;;;5093255;28;20071;-76
2023/12/10 05:34:35;;;;;;;6.88;1.27;;;8.70;99.90;;;;;;5112703;28;20460;-77
2023/12/10 05:37:00;;;;;;;8.70;1.60;;;8.50;99.90;;;;;;5130901;27;20043;-78
2023/12/10 05:39:26;;;;;;;7.18;1.58;;;8.70;99.90;;;;;;5101461;28;20039;-78
2023/12/10 05:41:52;;;;;;;11.48;1.70;;;8.50;99.90;;;;;;5092588;28;20032;-77
2023/12/10 05:44:19;;;;;;;10.57;1.83;;;8.70;99.90;;;;;;5104352;28;20032;-77
2023/12/10 05:46:45;;;;;;;5.70;1.35;;;8.50;99.90;;;;;;5123619;27;20101;-77
2023/12/10 05:49:11;;;;;;;5.53;1.00;;;8.40;99.90;;;;;;5088055;28;20047;-77
2023/12/10 05:51:36;;;;;;;7.15;1.45;;;8.40;99.90;;;;;;5129113;28;20047;-77
2023/12/10 05:54:02;;;;;;;7.40;1.10;;;8.40;99.90;;;;;;5096878;28;20050;-77
2023/12/10 05:56:28;;;;;;;5.75;1.10;;;8.50;99.90;;;;;;5115539;28;20050;-78
2023/12/10 05:58:54;;;;;;;7.90;1.58;;;8.30;99.90;;;;;;5130371;27;20036;-77
2023/12/10 06:01:20;;;;;;;6.25;1.08;;;8.30;99.90;;;;;;5115032;28;20366;-77
2023/12/10 06:03:46;;;;;;;7.80;2.28;;;8.50;99.90;;;;;;5102892;28;20048;-78
2023/12/10 06:06:12;;;;;;;7.47;1.83;;;8.40;99.90;;;;;;5101505;28;20134;-77
2023/12/10 06:08:38;;;;;;;7.55;1.98;;;8.40;99.90;;;;;;5130521;28;20114;-78
2023/12/10 06:11:04;;;;;;;7.45;1.27;;;8.30;99.90;;;;;;5129943;28;20046;-78
2023/12/10 06:13:29;;;;;;;8.40;1.50;;;8.40;99.90;;;;;;5116508;28;20379;-78
2023/12/10 06:15:56;;;;;;;9.77;1.70;;;8.40;99.90;;;;;;5090143;28;20043;-78
2023/12/10 06:18:22;;;;;;;;;;;8.40;99.90;;;;;;5057952;28;20551;-78
2023/12/10 06:20:47;;;;;;;12.45;1.83;;;8.60;99.90;;;;;;5117549;28;20101;-77
2023/12/10 06:23:13;;;;;;;11.38;2.50;;;8.50;99.90;;;;;;5092200;28;20046;-78
2023/12/10 06:25:39;;;;;;;14.38;2.10;;;8.40;99.90;;;;;;5143918;27;20376;-78
2023/12/10 06:28:05;;;;;;;10.73;2.38;;;8.60;99.90;;;;;;5127818;27;20061;-78
2023/12/10 06:30:31;;;;;;;12.70;2.03;;;8.50;99.90;;;;;;5129945;27;20058;-78
2023/12/10 06:32:56;;;;;;;9.15;1.98;;;8.50;99.90;;;;;;5092854;28;20063;-78
2023/12/10 06:35:22;;;;;;;15.68;2.88;;;8.50;99.90;;;;;;5134030;27;20420;-78
2023/12/10 06:37:48;;;;;;;11.52;2.10;;;8.70;99.90;;;;;;5127533;28;20047;-78
2023/12/10 06:40:14;;;;;;;16.73;2.33;;;8.70;99.90;;;;;;5114523;28;20044;-78
2023/12/10 06:42:40;;;;;;;21.70;3.40;;;8.60;99.90;;;;;;5119551;28;20046;-78
2023/12/10 06:45:06;;;;;;;18.13;3.17;;;8.70;99.90;;;;;;5093593;28;20039;-78
2023/12/10 06:47:33;;;;;;;13.13;2.50;;;8.60;99.90;;;;;;5142939;27;20043;-78
2023/12/10 06:49:58;;;;;;;20.48;3.50;;;8.70;99.90;;;;;;5097011;27;20525;-78
2023/12/10 06:52:24;;;;;;;22.45;2.90;;;8.80;99.90;;;;;;5107330;28;20111;-78
2023/12/10 06:54:51;;;;;;;21.17;3.05;;;8.60;99.90;;;;;;5114851;27;20047;-78
2023/12/10 06:57:17;;;;;;;19.13;2.65;;;8.70;99.90;;;;;;5087096;28;20042;-78
2023/12/10 06:59:43;;;;;;;20.33;2.67;;;8.60;99.90;;;;;;5099492;28;20047;-78
2023/12/10 07:02:09;;;;;;;11.77;2.22;;;8.50;99.90;;;;;;5114355;27;20035;-78
2023/12/10 07:04:35;;;;;;;;;;;8.70;99.90;;;;;;5134466;27;20049;-78
2023/12/10 07:07:01;;;;;;;20.90;2.83;;;8.60;99.90;;;;;;5133846;27;20226;-79
2023/12/10 07:09:26;;;;;;;16.55;3.15;;;8.60;99.90;;;;;;5125107;27;20040;-78
2023/12/10 07:11:52;;;;;;;11.98;1.83;;;8.60;99.90;;;;;;5112253;28;20549;-77
2023/12/10 07:14:18;;;;;;;17.20;2.30;;;8.80;99.90;;;;;;5088822;28;20040;-78
2023/12/10 07:16:43;;;;;;;12.32;2.20;;;8.80;99.90;;;;;;5075638;28;20054;-78
2023/12/10 07:19:09;;;;;;;14.13;2.28;;;8.80;99.90;;;;;;5122981;27;20042;-78
2023/12/10 07:21:35;;;;;;;10.73;1.98;;;8.90;99.90;;;;;;5110486;27;20046;-78
2023/12/10 07:24:01;;;;;;;11.40;2.20;;;8.80;99.90;;;;;;5096544;28;20112;-78
2023/12/10 07:26:26;;;;;;;12.35;1.95;;;9.00;99.90;;;;;;5095356;28;20050;-78
2023/12/10 07:28:52;;;;;;;10.48;1.90;;;8.80;99.90;;;;;;5093126;28;20048;-78
2023/12/10 07:31:18;;;;;;;13.35;1.92;;;9.00;99.90;;;;;;5075630;28;20055;-78
2023/12/10 07:33:44;;;;;;;10.55;1.77;;;8.90;99.90;;;;;;5099524;28;20064;-79
2023/12/10 07:36:11;;;;;;;12.27;1.77;;;8.90;99.90;;;;;;5088008;28;20039;-79
2023/12/10 07:38:37;;;;;;;;;;;8.80;99.90;;;;;;5089954;27;20031;-78
2023/12/10 07:41:04;;;;;;;13.57;2.22;;;9.00;99.90;;;;;;5091275;28;19942;-79
2023/12/10 07:43:30;;;;;;;10.70;1.85;;;8.90;99.90;;;;;;5097676;27;20039;-78
2023/12/10 07:45:56;;;;;;;6.45;1.45;;;8.90;99.90;;;;;;5110046;27;20383;-77
2023/12/10 07:48:22;;;;;;;8.55;1.90;;;8.90;99.90;;;;;;5107092;27;20088;-78
2023/12/10 07:50:47;;;;;;;10.55;1.67;;;9.00;99.90;;;;;;5094335;28;20181;-78
2023/12/10 07:53:13;;;;;;;11.65;1.88;;;8.80;99.90;;;;;;5093867;28;20035;-78
2023/12/10 07:55:39;;;;;;;6.97;1.63;;;9.00;99.90;;;;;;5068580;28;20426;-76
2023/12/10 07:58:05;;;;;;;9.18;1.80;;;8.90;99.90;;;;;;5111438;28;20044;-76
2023/12/10 08:00:31;;;;;;;10.88;1.70;;;8.90;99.90;;;;;;5108192;28;20044;-76
2023/12/10 08:02:57;;;;;;;10.18;1.98;;;8.80;99.90;;;;;;5109592;28;20039;-76
2023/12/10 08:05:23;;;;;;;11.55;2.50;;;8.90;99.90;;;;;;5088363;28;20074;-76
2023/12/10 08:07:48;;;;;;;15.45;2.30;;;8.90;99.90;;;;;;5110443;28;20510;-75
2023/12/10 08:10:14;;;;;;;15.25;2.50;;;9.00;99.90;;;;;;5075315;28;20471;-78
2023/12/10 08:12:40;;;;;;;11.95;1.75;;;8.70;99.90;;;;;;5091449;28;20502;-78
2023/12/10 08:15:06;;;;;;;8.40;1.75;;;8.70;99.90;;;;;;5090411;28;20482;-77
2023/12/10 08:17:32;;;;;;;6.03;1.50;;;8.80;99.90;;;;;;5111335;28;20071;-78
2023/12/10 08:19:58;;;;;;;7.35;1.83;;;8.70;99.90;;;;;;5110668;27;20067;-78
2023/12/10 08:22:24;;;;;;;7.38;1.55;;;8.80;99.90;;;;;;5099146;28;20032;-78
2023/12/10 08:24:49;;;;;;;5.97;1.38;;;8.90;99.90;;;;;;5086605;28;20047;-80
2023/12/10 08:27:15;;;;;;;9.50;1.75;;;8.70;99.90;;;;;;5107951;27;20036;-80
2023/12/10 08:29:41;;;;;;;8.32;1.48;;;8.70;99.90;;;;;;5112045;28;20089;-79
2023/12/10 08:32:07;;;;;;;7.03;1.40;;;8.70;99.90;;;;;;5111904;28;20471;-80
2023/12/10 08:34:33;;;;;;;11.50;1.95;;;8.60;99.90;;;;;;5092758;27;20069;-80
2023/12/10 08:36:58;;;;;;;14.95;2.47;;;8.80;99.90;;;;;;5113951;27;20051;-79
2023/12/10 08:39:24;;;;;;;11.40;2.10;;;8.70;99.90;;;;;;5113476;28;20054;-79
2023/12/10 08:41:50;;;;;;;13.55;1.92;;;8.80;99.90;;;;;;5075291;28;20039;-78
2023/12/10 08:44:16;;;;;;;10.77;1.73;;;8.60;99.90;;;;;;5104814;28;20070;-79
2023/12/10 08:46:42;;;;;;;9.02;1.80;;;8.60;99.90;;;;;;5098331;28;20040;-79
2023/12/10 08:49:08;;;;;;;7.65;1.60;;;8.70;99.90;;;;;;5114198;27;20104;-75
2023/12/10 08:51:34;;;;;;;10.68;2.05;;;8.70;99.90;;;;;;5106446;27;20412;-77
2023/12/10 08:54:00;;;;;;;;;;;8.60;99.90;;;;;;5102329;28;20042;-75
2023/12/10 08:56:26;;;;;;;13.30;2.30;;;8.60;99.90;;;;;;5105728;27;19927;-76
2023/12/10 08:58:52;;;;;;;12.02;2.55;;;8.60;99.90;;;;;;5099402;28;20044;-77
2023/12/10 09:01:18;;;;;;;13.00;2.25;;;8.50;99.90;;;;;;5099584;27;20507;-76
2023/12/10 09:03:45;;;;;;;16.98;2.60;;;8.60;99.90;;;;;;5089304;28;20043;-77
2023/12/10 09:06:12;;;;;;;16.83;2.92;;;8.60;99.90;;;;;;5111793;27;20063;-77
2023/12/10 09:08:38;;;;;;;22.13;3.45;;;8.60;99.90;;;;;;5115561;27;20475;-75
2023/12/10 09:11:04;;;;;;;16.15;2.97;;;8.70;99.90;;;;;;5092557;28;20054;-76
2023/12/10 09:13:35;;;;;;;16.85;2.70;;;8.70;99.90;;;;;;5105741;28;20373;-79
2023/12/10 09:16:04;;;;;;;20.95;2.88;;;8.70;99.90;;;;;;5093586;28;20044;-79
2023/12/10 09:18:30;;;;;;;22.90;3.95;;;8.60;99.90;;;;;;5094070;28;20058;-77
2023/12/10 09:20:55;;;;;;;14.75;2.60;;;8.70;99.90;;;;;;5094394;28;20069;-78
2023/12/10 09:23:21;;;;;;;12.65;2.70;;;8.70;99.90;;;;;;5105777;28;20467;-78
2023/12/10 09:25:48;;;;;;;16.73;2.70;;;8.60;99.90;;;;;;5111023;28;20185;-78
2023/12/10 09:28:13;;;;;;;;;;;8.60;99.90;;;;;;5112778;27;20046;-78
2023/12/10 09:30:39;;;;;;;18.27;2.75;;;8.50;99.90;;;;;;5110869;28;19920;-78
2023/12/10 09:33:05;;;;;;;18.17;2.65;;;8.60;99.90;;;;;;5110730;28;20051;-78
2023/12/10 09:35:31;;;;;;;17.80;2.85;;;8.60;99.90;;;;;;5110763;28;20043;-78
2023/12/10 09:37:57;;;;;;;14.48;3.30;;;8.60;99.90;;;;;;5106761;28;20122;-78
2023/12/10 09:40:23;;;;;;;11.70;3.25;;;8.50;99.90;;;;;;5114797;28;20065;-78
2023/12/10 09:42:49;;;;;;;21.05;3.55;;;8.60;99.90;;;;;;5122818;28;20046;-78
2023/12/10 09:45:14;;;;;;;12.93;2.50;;;8.60;99.90;;;;;;5110837;28;20031;-78
2023/12/10 09:47:42;;;;;;;15.88;2.83;;;8.60;99.90;;;;;;5110780;28;20119;-78
2023/12/10 09:50:08;;;;;;;11.68;2.63;;;8.70;99.90;;;;;;5092903;28;20031;-78
2023/12/10 09:52:34;;;;;;;14.23;2.80;;;8.60;99.90;;;;;;5110547;28;20052;-78
2023/12/10 09:55:00;;;;;;;11.80;2.17;;;8.70;99.90;;;;;;5111276;28;20060;-78
2023/12/10 09:57:28;;;;;;;15.82;2.53;;;8.50;99.90;;;;;;5111311;28;20417;-78
2023/12/10 09:59:53;;;;;;;14.00;2.30;;;8.60;99.90;;;;;;5112748;28;20052;-77
2023/12/10 10:02:19;;;;;;;15.23;3.10;;;8.50;99.90;;;;;;5110052;28;20494;-78
2023/12/10 10:04:45;;;;;;;18.30;2.67;;;8.60;99.90;;;;;;5077478;28;20229;-78
2023/12/10 10:07:13;;;;;;;16.25;2.58;;;8.60;99.90;;;;;;5128172;28;20071;-78
2023/12/10 10:09:40;;;;;;;23.05;3.38;;;8.60;99.90;;;;;;5109231;28;20413;-78
2023/12/10 10:12:07;;;;;;;20.70;3.00;;;8.60;99.90;;;;;;5093444;28;20048;-78
2023/12/10 10:14:33;;;;;;;19.25;2.58;;;8.60;99.90;;;;;;5090270;28;20053;-78
2023/12/10 10:16:59;;;;;;;14.93;2.72;;;8.60;99.90;;;;;;5129931;28;20050;-77
2023/12/10 10:19:26;;;;;;;16.38;2.63;;;8.60;99.90;;;;;;5121229;27;20066;-78
2023/12/10 10:21:51;;;;;;;14.07;2.70;;;8.60;99.90;;;;;;5129024;27;20487;-78
2023/12/10 10:24:17;;;;;;;20.98;3.20;;;8.60;99.90;;;;;;5100417;28;20043;-76
2023/12/10 10:26:43;;;;;;;15.27;2.80;;;8.50;99.90;;;;;;5097565;28;20043;-77
2023/12/10 10:29:09;;;;;;;20.90;2.90;;;8.60;99.90;;;;;;5129623;27;20046;-77
2023/12/10 10:31:34;;;;;;;19.70;3.70;;;8.60;99.90;;;;;;5107999;28;20092;-76
2023/12/10 10:34:04;;;;;;;15.77;2.97;;;8.60;99.90;;;;;;5136962;27;20508;-76
2023/12/10 10:36:31;;;;;;;21.13;3.45;;;8.40;99.90;;;;;;5114658;27;20053;-76
2023/12/10 10:38:57;;;;;;;23.70;3.58;;;8.60;99.90;;;;;;5096701;27;20066;-77
2023/12/10 10:41:24;;;;;;;19.40;3.75;;;8.60;99.90;;;;;;5096434;28;20043;-77
2023/12/10 10:43:50;;;;;;;21.58;3.60;;;8.50;99.90;;;;;;5111271;27;20040;-76
2023/12/10 10:46:20;;;;;;;22.17;3.95;;;8.60;99.90;;;;;;5071298;28;20047;-77
2023/12/10 10:48:51;;;;;;;22.77;3.78;;;8.60;99.90;;;;;;5076504;28;20044;-77
2023/12/10 10:51:29;;;;;;;23.55;3.67;;;8.60;99.90;;;;;;5106637;27;20051;-77
2023/12/10 10:53:57;;;;;;;30.63;4.38;;;8.60;99.90;;;;;;5105847;27;20036;-76
2023/12/10 10:56:24;;;;;;;21.00;3.60;;;8.60;99.90;;;;;;5109591;28;20040;-76
2023/12/10 10:58:50;;;;;;;26.02;4.68;;;8.70;99.90;;;;;;5112541;28;20044;-77
2023/12/10 11:01:35;;;;;;;29.17;4.28;;;8.70;99.90;;;;;;5088989;28;20048;-77
2023/12/10 11:04:01;;;;;;;25.08;4.63;;;8.70;99.90;;;;;;5101229;28;20387;-77
2023/12/10 11:06:27;;;;;;;27.23;3.90;;;8.60;99.90;;;;;;5104851;27;20048;-77
2023/12/10 11:08:59;;;;;;;31.00;4.65;;;8.70;99.90;;;;;;5072808;28;20047;-77
2023/12/10 11:11:28;;;;;;;23.55;4.07;;;8.60;99.90;;;;;;5089594;28;20056;-77
2023/12/10 11:13:54;;;;;;;27.23;3.72;;;8.70;99.90;;;;;;5102658;27;20398;-77
2023/12/10 11:16:21;;;;;;;;;;;8.70;99.90;;;;;;5093997;28;20044;-78
2023/12/10 11:18:57;;;;;;;31.33;6.03;;;8.70;99.90;;;;;;5128974;27;19915;-77
2023/12/10 11:21:23;;;;;;;30.45;5.05;;;8.80;99.90;;;;;;5119258;27;20036;-78
2023/12/10 11:23:49;;;;;;;29.52;4.55;;;8.80;99.90;;;;;;5145782;27;20063;-77
2023/12/10 11:26:15;;;;;;;29.15;5.00;;;8.80;99.90;;;;;;5122757;27;20406;-77
2023/12/10 11:28:42;;;;;;;32.92;5.28;;;8.80;99.90;;;;;;5123024;27;20044;-77
2023/12/10 11:31:08;;;;;;;29.70;4.43;;;8.90;99.90;;;;;;5116198;27;20042;-77
2023/12/10 11:33:38;;;;;;;28.60;4.55;;;8.90;99.90;;;;;;5123843;27;20403;-77
2023/12/10 11:36:13;;;;;;;30.60;4.03;;;8.90;99.90;;;;;;5089038;28;20096;-77
2023/12/10 11:38:45;;;;;;;28.60;5.25;;;9.00;99.90;;;;;;5091675;27;20483;-78
2023/12/10 11:41:10;;;;;;;22.27;4.72;;;9.00;99.90;;;;;;5109670;27;20027;-78
2023/12/10 11:43:37;;;;;;;30.45;5.10;;;9.00;99.90;;;;;;5077106;28;20027;-78
2023/12/10 11:46:04;;;;;;;20.65;3.40;;;9.00;99.90;;;;;;5096836;28;20406;-78
2023/12/10 11:48:30;;;;;;;29.42;4.22;;;9.00;99.90;;;;;;5109946;28;20040;-76
2023/12/10 11:50:56;;;;;;;22.58;4.22;;;8.90;99.90;;;;;;5088733;27;20047;-76
2023/12/10 11:53:22;;;;;;;21.52;4.07;;;8.90;99.90;;;;;;5092563;28;20036;-76
2023/12/10 11:55:51;;;;;;;25.15;4.95;;;8.90;99.90;;;;;;5095591;28;20063;-77
2023/12/10 11:58:26;;;;;;;29.17;4.72;;;8.80;99.90;;;;;;5128398;27;20039;-78
2023/12/10 12:00:59;;;;;;;29.08;4.85;;;8.80;99.90;;;;;;5091253;28;20134;-77
2023/12/10 12:03:25;;;;;;;27.05;4.30;;;8.80;99.90;;;;;;5114991;27;20110;-77
2023/12/10 12:05:52;;;;;;;30.90;5.05;;;8.80;99.90;;;;;;5103671;27;20035;-77
2023/12/10 12:08:27;;;;;;;28.73;4.80;;;8.80;99.90;;;;;;5078005;28;20510;-77
2023/12/10 12:10:53;;;;;;;30.20;5.18;;;8.90;99.90;;;;;;5094118;28;20036;-78
2023/12/10 12:13:19;;;;;;;24.67;4.25;;;8.80;99.90;;;;;;5111978;27;20084;-78
2023/12/10 12:15:46;;;;;;;26.48;4.22;;;8.80;99.90;;;;;;5108801;28;20043;-77
2023/12/10 12:18:12;;;;;;;22.08;4.15;;;8.80;99.90;;;;;;5108136;27;20043;-80
2023/12/10 12:20:38;;;;;;;;;;;8.80;99.90;;;;;;5083630;28;20032;-79
2023/12/10 12:23:04;;;;;;;26.63;5.00;;;8.70;99.90;;;;;;5096966;27;20760;-78
2023/12/10 12:25:34;;;;;;;27.63;6.38;;;8.70;99.90;;;;;;5115178;27;20521;-79
2023/12/10 12:28:07;;;;;;;30.65;4.93;;;8.70;99.90;;;;;;5120789;27;20048;-79
2023/12/10 12:30:36;;;;;;;23.88;4.47;;;8.70;99.90;;;;;;5094499;28;20047;-80
2023/12/10 12:33:05;;;;;;;30.88;5.15;;;8.60;99.90;;;;;;5082102;27;20139;-80
2023/12/10 12:35:31;;;;;;;33.03;5.03;;;8.70;99.90;;;;;;5131843;27;20047;-81
2023/12/10 12:37:57;;;;;;;33.17;4.82;;;8.80;99.90;;;;;;5123297;27;20108;-80
2023/12/10 12:40:23;;;;;;;29.40;4.43;;;8.80;99.90;;;;;;5109235;27;20035;-80
2023/12/10 12:42:50;;;;;;;33.88;5.03;;;8.80;99.90;;;;;;5092764;28;20050;-80
2023/12/10 12:45:18;;;;;;;25.88;5.32;;;8.80;99.90;;;;;;5110945;28;20410;-80